Time;durP1;ratioP1;P1;durP2;ratioP2;P2;SDS_P1;SDS_P2;PMS_P1;PMS_P2;Temp;Humidity;BMP_temperature;BMP_pressure;BME280_temperature;BME280_humidity;BME280_pressure;Samples;Min_cycle;Max_cycle;Signal;HPM_P1;HPM_P2
2022/05/26 00:00:30;;;;;;;4.60;2.45;;;16.80;99.90;;;;;;5087787;28;20239;-71
2022/05/26 00:02:55;;;;;;;3.30;2.30;;;16.80;99.90;;;;;;5105536;28;20697;-70
2022/05/26 00:05:21;;;;;;;3.30;2.10;;;16.80;99.90;;;;;;5102722;28;20262;-70
2022/05/26 00:07:46;;;;;;;2.38;1.90;;;16.70;99.90;;;;;;5092525;28;20198;-70
2022/05/26 00:10:13;;;;;;;1.95;1.42;;;16.70;99.90;;;;;;5090499;28;20216;-70
2022/05/26 00:12:39;;;;;;;1.92;1.65;;;16.70;99.90;;;;;;5091580;28;20226;-70
2022/05/26 00:15:05;;;;;;;2.10;1.55;;;16.80;99.90;;;;;;5088725;28;20260;-71
2022/05/26 00:17:31;;;;;;;1.88;1.15;;;16.80;99.90;;;;;;5087813;28;20632;-72
2022/05/26 00:19:58;;;;;;;2.17;1.55;;;16.80;99.90;;;;;;5082097;28;20190;-72
2022/05/26 00:22:25;;;;;;;1.98;1.38;;;16.80;99.90;;;;;;5076244;28;20210;-71
2022/05/26 00:24:50;;;;;;;5.18;3.30;;;16.80;99.90;;;;;;5076803;28;20213;-72
2022/05/26 00:27:16;;;;;;;3.75;1.90;;;16.70;99.90;;;;;;5076473;28;20203;-72
2022/05/26 00:29:41;;;;;;;3.17;2.08;;;16.80;99.90;;;;;;5077546;28;20289;-72
2022/05/26 00:32:07;;;;;;;5.40;1.80;;;16.80;99.90;;;;;;5076377;28;20167;-72
2022/05/26 00:34:33;;;;;;;3.47;1.80;;;16.80;99.90;;;;;;5078507;28;20172;-72
2022/05/26 00:36:59;;;;;;;3.80;1.83;;;16.70;99.90;;;;;;5076638;28;20194;-72
2022/05/26 00:39:25;;;;;;;3.42;1.77;;;16.70;99.90;;;;;;5075501;28;20214;-72
2022/05/26 00:41:54;;;;;;;3.55;1.75;;;16.70;99.90;;;;;;5077466;28;20229;-72
2022/05/26 00:44:21;;;;;;;3.25;1.90;;;16.70;99.90;;;;;;5081398;28;20171;-72
2022/05/26 00:47:09;;;;;;;1.80;1.45;;;16.70;99.90;;;;;;5083980;28;20186;-71
2022/05/26 00:49:43;;;;;;;1.98;1.60;;;16.60;99.90;;;;;;5111849;22;20218;-72
2022/05/26 00:52:21;;;;;;;1.70;1.58;;;16.60;99.90;;;;;;5073934;28;20245;-72
2022/05/26 00:54:50;;;;;;;2.33;1.67;;;16.70;99.90;;;;;;5083838;28;20206;-73
2022/05/26 00:57:22;;;;;;;3.10;1.30;;;16.60;99.90;;;;;;5091810;28;20764;-72
2022/05/26 01:00:04;;;;;;;1.80;1.48;;;16.70;99.90;;;;;;5078984;28;20211;-71
2022/05/26 01:02:45;;;;;;;2.13;1.50;;;16.80;99.90;;;;;;5053769;28;20293;-72
2022/05/26 01:05:15;;;;;;;2.53;1.30;;;16.80;99.90;;;;;;5071769;28;20189;-71
2022/05/26 01:07:42;;;;;;;3.13;1.45;;;16.70;99.90;;;;;;5053761;28;20209;-71
2022/05/26 01:10:10;;;;;;;1.65;1.42;;;16.70;99.90;;;;;;5070736;28;20691;-72
2022/05/26 01:12:36;;;;;;;2.00;1.58;;;16.70;99.90;;;;;;5071238;28;20809;-71
2022/05/26 01:15:08;;;;;;;1.63;1.40;;;16.80;99.90;;;;;;5050191;28;20281;-72
2022/05/26 01:17:39;;;;;;;2.92;1.63;;;16.80;99.90;;;;;;5071166;28;20286;-72
2022/05/26 01:20:18;;;;;;;3.42;1.60;;;16.80;99.90;;;;;;5070731;28;20282;-72
2022/05/26 01:23:13;;;;;;;2.42;1.65;;;16.80;99.90;;;;;;5071601;28;20260;-71
2022/05/26 01:25:58;;;;;;;3.10;2.50;;;16.80;99.90;;;;;;5071637;28;20583;-72
2022/05/26 01:28:44;;;;;;;3.20;1.38;;;16.80;99.90;;;;;;5052234;28;20293;-72
2022/05/26 01:31:35;;;;;;;1.67;1.52;;;16.90;99.90;;;;;;5052940;28;20637;-72
2022/05/26 01:34:15;;;;;;;2.00;1.45;;;16.80;99.90;;;;;;5071316;28;20206;-71
2022/05/26 01:36:53;;;;;;;1.45;1.20;;;16.70;99.90;;;;;;5070967;28;20236;-71
2022/05/26 01:40:03;;;;;;;3.63;1.30;;;16.60;99.90;;;;;;5070415;28;20213;-72
2022/05/26 01:42:48;;;;;;;2.67;1.08;;;16.70;99.90;;;;;;4987203;28;20206;-71
2022/05/26 01:45:22;;;;;;;1.98;1.30;;;16.80;99.90;;;;;;5066271;28;20210;-71
2022/05/26 01:47:56;;;;;;;2.53;0.98;;;16.80;99.90;;;;;;5052459;28;20205;-71
2022/05/26 01:50:30;;;;;;;1.50;1.20;;;16.80;99.90;;;;;;5052571;28;20210;-70
2022/05/26 01:53:24;;;;;;;3.08;1.20;;;16.70;99.90;;;;;;5053928;28;20228;-72
2022/05/26 01:56:18;;;;;;;3.92;1.30;;;16.70;99.90;;;;;;5053665;28;20548;-72
2022/05/26 01:58:53;;;;;;;1.38;1.15;;;16.70;99.90;;;;;;5070731;28;20209;-71
2022/05/26 02:01:23;;;;;;;3.05;1.30;;;16.70;99.90;;;;;;5070721;28;20233;-71
2022/05/26 02:03:51;;;;;;;3.00;1.15;;;16.80;99.90;;;;;;5052961;28;20203;-72
2022/05/26 02:06:26;;;;;;;2.55;1.13;;;16.70;99.90;;;;;;5070756;28;20683;-71
2022/05/26 02:08:59;;;;;;;2.47;1.38;;;16.70;99.90;;;;;;5044687;28;20593;-72
2022/05/26 02:11:26;;;;;;;1.95;1.05;;;16.80;99.90;;;;;;5070580;28;20213;-71
2022/05/26 02:13:59;;;;;;;6.60;4.97;;;16.80;99.90;;;;;;5067820;28;20194;-72
2022/05/26 02:16:34;;;;;;;2.78;1.30;;;16.80;99.90;;;;;;5070811;28;20640;-72
2022/05/26 02:19:08;;;;;;;2.40;1.30;;;16.80;99.90;;;;;;5051784;28;20213;-72
2022/05/26 02:21:42;;;;;;;1.60;1.25;;;16.90;99.90;;;;;;5071115;28;20223;-71
2022/05/26 02:24:16;;;;;;;1.83;1.40;;;16.90;99.90;;;;;;5063618;28;20227;-72
2022/05/26 02:26:41;;;;;;;2.80;1.23;;;16.90;99.90;;;;;;5073721;28;20729;-71
2022/05/26 02:31:53;;;;;;;1.92;0.80;;;16.90;99.90;;;;;;5067524;28;20868;-73
2022/05/26 02:34:21;;;;;;;3.80;1.30;;;16.90;99.90;;;;;;5074144;28;20714;-71
2022/05/26 02:36:52;;;;;;;1.63;1.00;;;17.00;99.90;;;;;;5066089;28;20600;-72
2022/05/26 02:39:18;;;;;;;2.47;1.10;;;16.90;99.90;;;;;;5073469;28;20213;-72
2022/05/26 02:41:43;;;;;;;3.97;0.88;;;16.90;99.90;;;;;;5073828;28;20210;-72
2022/05/26 02:44:10;;;;;;;1.50;1.13;;;16.90;99.90;;;;;;5074459;28;20563;-71
2022/05/26 02:46:53;;;;;;;3.03;1.30;;;16.90;99.90;;;;;;5074496;28;20187;-72
2022/05/26 02:49:40;;;;;;;1.48;0.93;;;16.90;99.90;;;;;;5073017;28;20264;-72
2022/05/26 02:52:40;;;;;;;1.58;1.10;;;16.90;99.90;;;;;;5068563;28;20207;-72
2022/05/26 02:55:22;;;;;;;1.23;1.08;;;16.90;99.90;;;;;;5068269;28;20699;-72
2022/05/26 02:57:59;;;;;;;3.75;1.05;;;16.90;99.90;;;;;;5047620;28;20199;-71
2022/05/26 03:00:40;;;;;;;1.92;1.10;;;16.90;99.90;;;;;;5073674;28;20241;-71
2022/05/26 03:03:11;;;;;;;4.65;1.50;;;17.00;99.90;;;;;;5073607;28;20203;-72
2022/05/26 03:05:41;;;;;;;3.90;1.20;;;17.00;99.90;;;;;;5073315;28;20322;-72
2022/05/26 03:08:11;;;;;;;1.95;0.90;;;17.00;99.90;;;;;;5072835;28;20167;-71
2022/05/26 03:10:37;;;;;;;1.55;0.90;;;17.00;99.90;;;;;;5073881;28;20236;-70
2022/05/26 03:13:03;;;;;;;2.78;1.20;;;17.00;99.90;;;;;;5073478;28;20226;-71
2022/05/26 03:15:30;;;;;;;1.92;1.20;;;16.90;99.90;;;;;;5073240;28;20215;-71
2022/05/26 03:17:59;;;;;;;1.80;1.15;;;17.00;99.90;;;;;;5072986;28;20751;-71
2022/05/26 03:20:25;;;;;;;2.35;1.30;;;16.90;99.90;;;;;;5073222;28;20263;-71
2022/05/26 03:22:51;;;;;;;3.03;1.20;;;17.00;99.90;;;;;;5055837;28;20258;-70
2022/05/26 03:25:16;;;;;;;2.35;1.23;;;17.00;99.90;;;;;;5073341;28;20203;-71
2022/05/26 03:27:42;;;;;;;2.95;1.25;;;17.10;99.90;;;;;;5072610;28;20237;-70
2022/05/26 03:30:08;;;;;;;1.40;1.00;;;17.10;99.90;;;;;;5054552;28;20213;-71
2022/05/26 03:32:33;;;;;;;3.17;0.80;;;17.10;99.90;;;;;;5054686;28;20219;-72
2022/05/26 03:43:13;;;;;;;1.75;1.25;;;17.30;99.90;;;;;;5073114;28;20737;-70
2022/05/26 03:45:38;;;;;;;3.88;1.00;;;17.30;99.90;;;;;;5072682;28;20203;-71
2022/05/26 03:48:05;;;;;;;1.48;1.02;;;17.40;99.90;;;;;;5070459;28;20226;-71
2022/05/26 03:50:31;;;;;;;2.35;1.10;;;17.40;99.90;;;;;;5072384;28;20222;-72
2022/05/26 03:52:57;;;;;;;3.60;0.82;;;17.40;99.90;;;;;;5055298;28;20643;-72
2022/05/26 03:55:23;;;;;;;1.85;0.80;;;17.50;99.90;;;;;;5072339;28;20252;-71
2022/05/26 03:57:49;;;;;;;1.52;1.20;;;17.40;99.90;;;;;;5072455;28;20203;-71
2022/05/26 04:00:17;;;;;;;7.10;1.40;;;17.50;99.90;;;;;;5072308;28;20578;-72
2022/05/26 04:02:43;;;;;;;3.10;1.13;;;17.50;99.90;;;;;;5072460;28;20256;-72
2022/05/26 04:05:10;;;;;;;1.40;1.10;;;17.50;99.90;;;;;;5072617;28;20167;-71
2022/05/26 04:07:36;;;;;;;1.77;1.23;;;17.50;99.90;;;;;;5072801;28;20182;-71
2022/05/26 04:10:07;;;;;;;5.10;1.27;;;17.60;99.90;;;;;;5071755;28;20211;-71
2022/05/26 04:12:33;;;;;;;3.65;1.25;;;17.60;99.90;;;;;;5072247;28;20203;-72
2022/05/26 04:14:59;;;;;;;2.38;1.20;;;17.70;99.90;;;;;;5072552;28;20199;-73
2022/05/26 04:17:25;;;;;;;3.25;1.38;;;17.80;99.90;;;;;;5054412;28;20545;-72
2022/05/26 04:19:51;;;;;;;2.00;1.05;;;18.00;99.90;;;;;;5071894;28;20198;-74
2022/05/26 04:22:17;;;;;;;2.47;1.13;;;18.20;99.90;;;;;;5072267;28;20718;-72
2022/05/26 04:24:45;;;;;;;1.05;0.95;;;18.40;99.90;;;;;;5068856;28;20199;-73
2022/05/26 04:27:10;;;;;;;3.05;1.30;;;18.70;99.90;;;;;;5072319;28;20313;-72
2022/05/26 04:29:36;;;;;;;1.63;1.33;;;19.30;99.90;;;;;;5053093;28;20215;-72
2022/05/26 04:32:02;;;;;;;2.63;1.20;;;19.30;99.90;;;;;;5054800;28;20244;-72
2022/05/26 04:34:28;;;;;;;2.05;1.20;;;19.20;99.90;;;;;;5053874;28;20258;-72
2022/05/26 04:36:54;;;;;;;2.35;1.33;;;19.20;99.90;;;;;;5071962;28;20226;-73
2022/05/26 04:39:19;;;;;;;3.25;1.30;;;18.80;99.90;;;;;;5053187;28;20199;-71
2022/05/26 04:41:46;;;;;;;6.70;1.30;;;18.70;99.90;;;;;;5054046;28;20286;-71
2022/05/26 04:44:16;;;;;;;2.08;1.33;;;18.80;99.90;;;;;;5058023;28;20258;-71
2022/05/26 04:46:41;;;;;;;2.33;1.27;;;18.80;99.90;;;;;;5092404;28;20183;-71
2022/05/26 04:49:08;;;;;;;2.63;1.40;;;18.80;99.90;;;;;;5091327;28;20207;-71
2022/05/26 04:51:35;;;;;;;2.08;1.50;;;18.90;99.90;;;;;;5073476;28;20256;-72
2022/05/26 04:54:06;;;;;;;1.67;1.30;;;19.00;99.90;;;;;;5092133;28;20281;-72
2022/05/26 04:56:31;;;;;;;6.80;1.73;;;19.00;99.90;;;;;;5091893;28;20210;-72
2022/05/26 04:58:57;;;;;;;3.60;1.50;;;19.10;99.90;;;;;;5091668;28;20542;-72
2022/05/26 05:01:23;;;;;;;4.13;1.48;;;19.60;99.90;;;;;;5091740;28;20690;-72
2022/05/26 05:03:49;;;;;;;2.63;1.60;;;19.90;99.90;;;;;;5091631;28;20678;-72
2022/05/26 05:06:16;;;;;;;3.75;1.58;;;20.00;99.90;;;;;;5073602;28;20258;-72
2022/05/26 05:08:42;;;;;;;2.92;1.45;;;20.10;99.90;;;;;;5090731;28;20297;-72
2022/05/26 05:11:09;;;;;;;5.07;1.80;;;20.20;99.90;;;;;;5073570;28;20193;-73
2022/05/26 05:13:35;;;;;;;3.33;1.48;;;20.30;99.90;;;;;;5091079;28;20179;-73
2022/05/26 05:16:04;;;;;;;3.63;1.33;;;22.00;99.90;;;;;;5091382;28;20248;-74
2022/05/26 05:18:32;;;;;;;2.05;1.27;;;23.90;99.90;;;;;;5072528;28;20202;-72
2022/05/26 05:21:03;;;;;;;1.65;1.10;;;25.20;99.90;;;;;;5073373;28;20285;-72
2022/05/26 05:23:29;;;;;;;4.15;1.50;;;27.10;99.90;;;;;;5091404;28;20198;-73
2022/05/26 05:25:57;;;;;;;1.73;1.02;;;28.00;99.90;;;;;;5091982;28;20288;-73
2022/05/26 05:28:35;;;;;;;2.67;1.00;;;28.80;99.90;;;;;;5090575;28;20202;-72
2022/05/26 05:31:07;;;;;;;4.53;1.40;;;28.30;99.60;;;;;;5091282;28;20208;-73
2022/05/26 05:33:39;;;;;;;2.28;1.10;;;27.80;98.80;;;;;;5091302;28;20202;-72
2022/05/26 05:36:06;;;;;;;3.58;1.30;;;27.70;99.90;;;;;;5091390;28;20197;-72
2022/05/26 05:38:35;;;;;;;2.47;1.30;;;27.40;99.70;;;;;;5090438;28;20198;-73
2022/05/26 05:41:01;;;;;;;2.47;1.75;;;26.50;99.90;;;;;;5091443;28;20178;-73
2022/05/26 05:43:29;;;;;;;4.43;1.70;;;24.30;99.90;;;;;;5071233;28;20617;-72
2022/05/26 05:45:54;;;;;;;3.08;1.48;;;23.40;99.90;;;;;;5091707;28;20194;-72
2022/05/26 05:48:21;;;;;;;4.38;1.33;;;23.00;99.90;;;;;;5072442;28;20249;-72
2022/05/26 05:50:47;;;;;;;2.65;1.58;;;22.60;99.90;;;;;;5052692;28;20209;-72
2022/05/26 05:53:12;;;;;;;2.25;1.50;;;22.00;99.90;;;;;;5083316;28;20220;-71
2022/05/26 05:55:38;;;;;;;2.28;1.77;;;22.20;99.90;;;;;;5073093;28;20167;-72
2022/05/26 05:58:07;;;;;;;5.20;1.73;;;22.00;99.90;;;;;;5071576;28;20190;-73
2022/05/26 06:00:32;;;;;;;3.10;1.70;;;21.60;99.90;;;;;;5090885;28;20233;-72
2022/05/26 06:02:58;;;;;;;2.63;1.55;;;20.90;99.90;;;;;;5090986;28;20278;-72
2022/05/26 06:05:24;;;;;;;4.53;2.13;;;20.50;99.90;;;;;;5090891;28;20217;-71
2022/05/26 06:07:49;;;;;;;5.07;2.08;;;19.60;99.90;;;;;;5091053;28;20537;-72
2022/05/26 06:10:15;;;;;;;2.83;2.15;;;19.40;99.90;;;;;;5090414;28;20197;-72
2022/05/26 06:12:40;;;;;;;6.22;2.60;;;19.00;99.90;;;;;;5090473;28;20210;-73
2022/05/26 06:15:06;;;;;;;5.38;2.20;;;19.20;99.90;;;;;;5087487;28;20190;-72
2022/05/26 06:17:32;;;;;;;3.08;1.77;;;19.10;99.90;;;;;;5090655;28;20569;-71
2022/05/26 06:19:57;;;;;;;2.80;2.35;;;19.40;99.90;;;;;;5090603;28;20198;-72
2022/05/26 06:22:24;;;;;;;3.42;2.40;;;19.20;99.90;;;;;;5061629;28;20713;-73
2022/05/26 06:24:50;;;;;;;4.57;2.30;;;19.10;99.90;;;;;;5083904;28;20707;-72
2022/05/26 06:30:06;;;;;;;3.17;2.22;;;19.30;99.90;;;;;;5061856;28;20271;-72
2022/05/26 06:38:18;;;;;;;7.05;2.70;;;19.30;99.90;;;;;;5079393;28;20646;-72
2022/05/26 06:40:44;;;;;;;6.55;2.50;;;19.40;99.90;;;;;;5090682;28;20191;-72
2022/05/26 06:43:10;;;;;;;2.92;2.45;;;19.30;99.90;;;;;;5087283;28;20206;-72
2022/05/26 06:45:36;;;;;;;6.70;2.53;;;19.20;99.90;;;;;;5085486;28;20578;-72
2022/05/26 06:48:02;;;;;;;5.43;2.40;;;19.40;99.90;;;;;;5089698;28;20195;-72
2022/05/26 06:50:28;;;;;;;4.82;2.10;;;19.50;99.90;;;;;;5089135;22;20248;-71
2022/05/26 06:52:54;;;;;;;2.85;2.10;;;19.50;99.90;;;;;;5111301;28;20190;-70
2022/05/26 06:55:19;;;;;;;3.72;2.60;;;19.30;99.90;;;;;;5101182;28;20209;-71
2022/05/26 06:57:45;;;;;;;2.50;1.95;;;19.20;99.90;;;;;;5108501;28;20215;-70
2022/05/26 07:00:12;;;;;;;4.18;2.70;;;19.20;99.90;;;;;;5110044;27;20205;-70
2022/05/26 07:02:38;;;;;;;3.45;2.50;;;19.00;99.90;;;;;;5108148;28;20209;-70
2022/05/26 07:05:05;;;;;;;3.55;2.75;;;18.90;99.90;;;;;;5109467;28;20499;-70
2022/05/26 07:07:32;;;;;;;3.83;2.58;;;18.90;99.90;;;;;;5108982;28;20205;-71
2022/05/26 07:09:58;;;;;;;7.13;3.47;;;18.60;99.90;;;;;;5111671;28;20214;-71
2022/05/26 07:12:24;;;;;;;4.45;2.90;;;18.50;99.90;;;;;;5114300;28;20635;-71
2022/05/26 07:14:49;;;;;;;4.20;2.60;;;18.30;99.90;;;;;;5110898;28;20210;-71
2022/05/26 07:17:15;;;;;;;6.57;2.83;;;17.90;99.90;;;;;;5112501;28;20271;-71
2022/05/26 07:19:42;;;;;;;4.80;3.10;;;17.80;99.90;;;;;;5105619;28;20548;-72
2022/05/26 07:22:08;;;;;;;4.35;3.78;;;17.70;99.90;;;;;;5103318;28;20225;-70
2022/05/26 07:24:33;;;;;;;5.80;3.83;;;17.60;99.90;;;;;;5112088;28;20220;-70
2022/05/26 07:27:00;;;;;;;6.90;3.53;;;17.50;99.90;;;;;;5102695;28;20281;-70
2022/05/26 07:29:27;;;;;;;6.88;4.53;;;17.40;99.90;;;;;;5108856;28;20222;-70
2022/05/26 07:31:52;;;;;;;5.28;4.78;;;17.30;99.90;;;;;;5106916;28;20194;-70
2022/05/26 07:34:18;;;;;;;4.47;4.05;;;17.20;99.90;;;;;;5104599;27;20210;-70
2022/05/26 07:42:18;;;;;;;5.68;4.00;;;17.00;99.90;;;;;;5086605;28;20214;-70
2022/05/26 07:44:46;;;;;;;5.28;3.92;;;17.10;99.90;;;;;;5088954;28;20280;-70
2022/05/26 07:47:12;;;;;;;4.90;4.10;;;17.10;99.90;;;;;;5082634;28;20531;-71
2022/05/26 07:49:47;;;;;;;4.95;4.47;;;17.20;99.90;;;;;;5090578;28;20202;-71
2022/05/26 07:52:14;;;;;;;6.75;4.25;;;17.50;99.90;;;;;;5107376;28;20209;-72
2022/05/26 07:54:39;;;;;;;5.00;4.50;;;17.80;99.90;;;;;;5111994;28;20205;-71
2022/05/26 07:57:06;;;;;;;4.65;4.20;;;17.90;99.90;;;;;;5113078;28;20216;-72
2022/05/26 07:59:32;;;;;;;7.80;4.38;;;18.10;99.90;;;;;;5112629;28;20201;-71
2022/05/26 08:01:58;;;;;;;4.90;4.00;;;18.10;99.90;;;;;;5113524;28;20255;-72
2022/05/26 08:04:23;;;;;;;4.43;4.03;;;18.40;99.90;;;;;;5113186;28;20204;-71
2022/05/26 08:06:49;;;;;;;4.10;3.38;;;18.70;99.90;;;;;;5111746;28;20197;-70
2022/05/26 08:09:17;;;;;;;4.80;3.58;;;19.00;99.90;;;;;;5112192;28;20241;-70
2022/05/26 08:11:43;;;;;;;3.78;3.47;;;19.40;99.90;;;;;;5112779;28;20284;-71
2022/05/26 08:14:09;;;;;;;5.68;2.58;;;19.60;99.90;;;;;;5111256;28;20170;-71
2022/05/26 08:16:35;;;;;;;5.35;2.72;;;19.70;99.90;;;;;;5113232;28;20534;-70
2022/05/26 08:19:01;;;;;;;4.85;2.38;;;20.10;99.90;;;;;;5111650;28;20535;-73
2022/05/26 08:21:26;;;;;;;2.75;1.95;;;20.90;99.90;;;;;;5085303;28;20214;-74
2022/05/26 08:23:53;;;;;;;2.00;1.85;;;21.40;99.90;;;;;;5085107;28;20204;-73
2022/05/26 08:26:19;;;;;;;3.58;2.40;;;21.60;99.90;;;;;;5112750;28;20169;-72
2022/05/26 08:28:45;;;;;;;3.22;2.20;;;22.30;99.90;;;;;;5112380;28;20214;-72
2022/05/26 08:31:13;;;;;;;2.70;1.42;;;22.50;99.90;;;;;;5112520;28;20205;-70
2022/05/26 08:33:38;;;;;;;5.30;1.77;;;23.10;99.90;;;;;;5112693;27;20664;-70
2022/05/26 08:36:11;;;;;;;1.60;1.50;;;23.70;99.90;;;;;;5112810;28;20205;-72
2022/05/26 08:38:36;;;;;;;2.75;1.50;;;23.50;99.90;;;;;;5111532;28;20288;-71
2022/05/26 08:41:04;;;;;;;1.25;1.10;;;24.60;99.90;;;;;;5112992;28;20312;-72
2022/05/26 08:43:41;;;;;;;1.77;1.35;;;25.40;99.90;;;;;;5110994;28;20622;-72
2022/05/26 08:46:09;;;;;;;2.67;1.20;;;25.50;99.90;;;;;;5110946;28;20649;-71
2022/05/26 08:49:09;;;;;;;1.17;1.00;;;24.60;99.90;;;;;;5111534;28;20202;-72
2022/05/26 08:51:56;;;;;;;2.72;1.50;;;22.90;99.90;;;;;;5096722;27;20290;-73
2022/05/26 08:54:32;;;;;;;3.05;1.10;;;22.50;99.90;;;;;;5073488;28;20206;-73
2022/05/26 08:57:00;;;;;;;1.25;1.10;;;22.80;99.90;;;;;;5097439;28;20201;-72
2022/05/26 08:59:37;;;;;;;2.03;1.20;;;23.20;99.90;;;;;;5087089;28;20277;-72
2022/05/26 09:02:03;;;;;;;2.08;1.05;;;23.20;99.90;;;;;;5078505;28;20667;-70
2022/05/26 09:04:29;;;;;;;1.27;0.90;;;22.80;99.90;;;;;;5072185;28;20678;-70
2022/05/26 09:15:20;;;;;;;1.25;1.15;;;23.60;99.90;;;;;;5073259;28;20233;-71
2022/05/26 09:17:46;;;;;;;3.28;1.15;;;23.30;99.90;;;;;;5072133;28;20215;-71
2022/05/26 09:20:34;;;;;;;1.52;0.80;;;24.30;99.90;;;;;;5070728;28;20232;-71
2022/05/26 09:23:20;;;;;;;1.25;0.90;;;24.70;99.90;;;;;;5083244;28;20201;-71
2022/05/26 09:26:19;;;;;;;1.05;0.80;;;24.30;99.90;;;;;;5073270;28;20221;-72
2022/05/26 09:28:52;;;;;;;2.15;1.05;;;24.50;99.90;;;;;;5097655;28;20197;-73
2022/05/26 09:31:21;;;;;;;1.83;1.38;;;23.80;99.90;;;;;;5096841;28;20306;-71
2022/05/26 09:34:15;;;;;;;3.05;1.92;;;23.10;99.90;;;;;;5097702;28;20674;-71
2022/05/26 09:36:56;;;;;;;2.95;1.20;;;22.10;99.90;;;;;;5111310;28;20216;-71
2022/05/26 09:39:37;;;;;;;3.97;1.80;;;21.50;99.90;;;;;;5107286;28;20208;-71
2022/05/26 09:42:06;;;;;;;3.30;1.10;;;20.90;99.90;;;;;;5110278;28;20208;-71
2022/05/26 09:44:55;;;;;;;2.78;1.23;;;20.30;99.90;;;;;;5109703;28;20567;-71
2022/05/26 09:47:32;;;;;;;2.78;1.08;;;21.10;99.90;;;;;;5103549;28;20196;-71
2022/05/26 09:50:00;;;;;;;2.10;1.30;;;21.90;99.90;;;;;;5111234;28;20189;-70
2022/05/26 09:52:38;;;;;;;4.00;1.40;;;21.70;99.90;;;;;;5111066;28;20589;-70
2022/05/26 09:55:17;;;;;;;5.22;1.60;;;22.10;99.90;;;;;;5111234;28;20193;-71
2022/05/26 09:57:43;;;;;;;1.67;1.52;;;22.70;99.90;;;;;;5110619;28;20197;-71
2022/05/26 10:00:14;;;;;;;3.22;1.30;;;22.20;99.90;;;;;;5109214;28;20194;-70
2022/05/26 10:02:40;;;;;;;1.60;0.93;;;22.00;99.90;;;;;;5108625;28;20806;-71
2022/05/26 10:05:23;;;;;;;2.50;1.40;;;21.40;99.90;;;;;;5104229;28;20268;-71
2022/05/26 10:08:15;;;;;;;1.75;1.10;;;20.80;99.90;;;;;;5095402;28;20523;-71
2022/05/26 10:10:44;;;;;;;3.63;1.58;;;21.00;99.90;;;;;;5111409;28;20760;-71
2022/05/26 10:13:36;;;;;;;3.95;1.10;;;21.50;99.90;;;;;;5111253;28;20204;-70
2022/05/26 10:16:16;;;;;;;3.63;1.70;;;21.70;99.90;;;;;;5094269;28;20202;-70
2022/05/26 10:19:17;;;;;;;3.00;1.40;;;21.10;99.90;;;;;;5109494;28;20201;-70
2022/05/26 10:22:08;;;;;;;3.28;1.55;;;20.60;99.90;;;;;;5106874;28;20612;-71
2022/05/26 10:24:52;;;;;;;3.80;1.60;;;20.30;99.90;;;;;;5110894;28;20790;-71
2022/05/26 10:27:32;;;;;;;4.35;1.58;;;20.30;99.90;;;;;;5084676;28;20681;-72
2022/05/26 10:30:12;;;;;;;2.75;1.58;;;20.20;99.90;;;;;;5096592;28;20209;-71
2022/05/26 10:33:01;;;;;;;2.50;1.50;;;20.40;99.90;;;;;;5110903;28;20213;-71
2022/05/26 10:35:41;;;;;;;4.28;1.98;;;20.10;99.90;;;;;;5109333;28;20202;-70
2022/05/26 10:39:01;;;;;;;3.22;1.60;;;20.30;99.90;;;;;;5102582;28;20185;-71
2022/05/26 10:41:47;;;;;;;2.22;1.25;;;20.20;99.90;;;;;;5077450;28;20205;-72
2022/05/26 10:44:26;;;;;;;5.30;1.92;;;20.00;99.90;;;;;;5112666;28;20173;-71
2022/05/26 10:47:02;;;;;;;5.32;1.65;;;20.20;99.90;;;;;;5098890;28;20161;-71
2022/05/26 10:49:34;;;;;;;5.35;1.70;;;20.70;99.90;;;;;;5114523;28;20213;-72
2022/05/26 10:52:17;;;;;;;4.60;1.75;;;21.20;99.90;;;;;;5114590;28;20221;-72
2022/05/26 10:54:48;;;;;;;6.78;1.75;;;21.50;99.90;;;;;;5113140;28;20227;-71
2022/05/26 10:57:39;;;;;;;3.25;1.67;;;21.60;99.90;;;;;;5113373;28;20629;-70
2022/05/26 11:00:14;;;;;;;4.70;2.00;;;21.40;99.90;;;;;;5102421;27;20224;-71
2022/05/26 11:03:11;;;;;;;4.40;1.75;;;21.50;99.90;;;;;;5113181;28;20242;-71
2022/05/26 11:05:50;;;;;;;2.97;2.00;;;22.20;99.90;;;;;;5114521;27;20694;-73
2022/05/26 11:08:25;;;;;;;3.47;1.42;;;22.20;99.90;;;;;;5113714;28;20169;-72
2022/05/26 11:10:57;;;;;;;3.30;1.60;;;22.00;99.90;;;;;;5097883;28;20200;-73
2022/05/26 11:13:53;;;;;;;3.15;1.58;;;21.90;99.90;;;;;;5112894;28;20284;-72
2022/05/26 11:19:44;;;;;;;4.68;1.80;;;21.70;99.90;;;;;;5104269;28;21041;-72
2022/05/26 11:22:12;;;;;;;2.95;1.45;;;21.40;99.90;;;;;;5104012;28;20231;-72
2022/05/26 11:24:39;;;;;;;3.15;1.70;;;21.70;99.90;;;;;;5113838;28;20209;-71
2022/05/26 11:27:12;;;;;;;4.20;1.70;;;21.60;99.90;;;;;;5114534;28;20209;-70
2022/05/26 11:29:44;;;;;;;4.03;1.90;;;21.60;99.90;;;;;;5111699;28;20249;-71
2022/05/26 11:38:06;;;;;;;6.85;2.67;;;21.30;99.90;;;;;;5099118;28;20556;-75
2022/05/26 11:40:36;;;;;;;2.88;1.88;;;21.60;99.90;;;;;;5112698;28;20288;-76
2022/05/26 11:43:07;;;;;;;2.92;1.80;;;21.40;99.90;;;;;;5115100;28;20197;-77
2022/05/26 11:45:47;;;;;;;4.35;3.40;;;21.30;99.90;;;;;;5107381;28;20279;-76
2022/05/26 11:48:31;;;;;;;2.92;1.55;;;21.00;99.90;;;;;;5110611;28;20197;-76
2022/05/26 11:50:58;;;;;;;4.80;1.42;;;20.70;99.90;;;;;;5094235;28;20213;-76
2022/05/26 11:53:30;;;;;;;2.67;1.40;;;20.40;99.90;;;;;;5114341;28;20221;-76
2022/05/26 11:56:04;;;;;;;3.15;1.63;;;20.30;99.90;;;;;;5114379;28;20174;-76
2022/05/26 11:58:40;;;;;;;4.60;1.80;;;21.00;99.90;;;;;;5113128;28;20202;-77
2022/05/26 12:01:14;;;;;;;3.65;1.50;;;21.70;99.90;;;;;;5112561;28;20681;-78
2022/05/26 12:03:54;;;;;;;4.03;1.70;;;22.00;99.90;;;;;;5113555;28;20216;-78
2022/05/26 12:06:37;;;;;;;4.00;1.55;;;21.90;99.90;;;;;;5113463;28;20224;-79
2022/05/26 12:09:18;;;;;;;3.25;1.50;;;21.70;99.90;;;;;;5100144;28;20741;-78
2022/05/26 12:11:59;;;;;;;4.78;1.80;;;21.40;99.90;;;;;;5113770;28;20228;-77
2022/05/26 12:14:47;;;;;;;3.15;2.25;;;21.70;99.90;;;;;;5111292;28;20234;-76
2022/05/26 12:17:31;;;;;;;3.08;1.40;;;21.70;99.90;;;;;;5113392;28;20166;-78
2022/05/26 12:19:59;;;;;;;8.07;1.85;;;21.60;99.90;;;;;;5099682;28;20166;-75
2022/05/26 12:22:31;;;;;;;4.50;1.80;;;21.80;99.90;;;;;;5113006;28;20201;-77
2022/05/26 12:24:59;;;;;;;3.38;1.75;;;22.00;99.90;;;;;;5113223;28;20255;-75
2022/05/26 12:27:56;;;;;;;3.38;1.80;;;22.40;99.90;;;;;;5106432;28;20712;-74
2022/05/26 12:30:42;;;;;;;3.30;1.67;;;22.50;99.90;;;;;;5111329;28;20212;-77
2022/05/26 12:33:20;;;;;;;5.82;1.75;;;22.40;99.90;;;;;;5112623;28;20257;-75
2022/05/26 12:36:08;;;;;;;4.85;1.50;;;22.10;99.90;;;;;;5111256;28;20286;-74
2022/05/26 12:38:58;;;;;;;8.70;2.03;;;21.50;99.90;;;;;;5110587;28;20201;-77
2022/05/26 12:41:42;;;;;;;4.35;1.60;;;21.50;99.90;;;;;;5111981;28;20209;-76
2022/05/26 12:44:45;;;;;;;3.92;1.88;;;21.70;99.90;;;;;;5102378;28;20204;-77
2022/05/26 12:47:16;;;;;;;5.63;1.95;;;21.80;99.90;;;;;;5102014;28;20181;-77
2022/05/26 12:49:57;;;;;;;4.28;1.63;;;21.90;99.90;;;;;;5102415;28;20185;-78
2022/05/26 12:52:34;;;;;;;5.00;2.22;;;22.00;99.90;;;;;;5117029;22;20510;-78
2022/05/26 12:55:18;;;;;;;4.32;2.38;;;22.30;99.90;;;;;;5074391;28;20197;-76
2022/05/26 12:57:54;;;;;;;3.63;2.17;;;22.40;99.90;;;;;;5091829;28;20199;-74
2022/05/26 13:00:44;;;;;;;4.60;2.45;;;22.20;99.90;;;;;;5073762;28;20198;-77
2022/05/26 13:03:23;;;;;;;8.30;2.63;;;21.70;99.90;;;;;;5087749;28;20213;-78
2022/05/26 13:06:11;;;;;;;5.07;1.52;;;21.50;99.90;;;;;;5093392;28;20199;-78
2022/05/26 13:08:47;;;;;;;9.05;1.67;;;21.40;99.90;;;;;;5062644;28;20214;-74
2022/05/26 13:11:19;;;;;;;4.72;1.70;;;21.30;99.90;;;;;;5094341;28;20174;-75
2022/05/26 13:13:54;;;;;;;4.40;2.00;;;21.10;99.90;;;;;;5095865;28;20170;-78
2022/05/26 13:16:31;;;;;;;5.82;1.95;;;21.10;99.90;;;;;;5092998;28;20198;-74
2022/05/26 13:19:09;;;;;;;7.20;2.45;;;21.10;99.90;;;;;;5084201;28;20677;-75
2022/05/26 13:21:35;;;;;;;5.65;2.92;;;21.50;99.90;;;;;;5094603;28;20694;-78
2022/05/26 13:24:01;;;;;;;3.45;1.80;;;21.70;99.90;;;;;;5075047;28;20228;-76
2022/05/26 13:26:26;;;;;;;3.95;1.42;;;21.70;99.90;;;;;;5090052;28;20277;-76
2022/05/26 13:28:58;;;;;;;5.68;2.30;;;21.50;99.90;;;;;;5073622;28;20158;-74
2022/05/26 13:34:11;;;;;;;5.82;1.85;;;21.20;99.90;;;;;;5091357;28;20217;-73
2022/05/26 13:36:38;;;;;;;5.63;2.13;;;21.00;99.90;;;;;;5091396;28;20259;-76
2022/05/26 13:39:13;;;;;;;6.13;2.65;;;21.20;99.90;;;;;;5090651;28;20728;-75
2022/05/26 13:41:45;;;;;;;5.50;1.98;;;21.30;99.90;;;;;;5072962;28;20296;-74
2022/05/26 13:44:42;;;;;;;7.50;4.13;;;21.50;99.90;;;;;;5092061;28;20205;-77
2022/05/26 13:47:10;;;;;;;5.70;1.75;;;21.60;99.90;;;;;;5087320;28;20167;-75
2022/05/26 13:49:39;;;;;;;5.85;1.90;;;22.00;99.90;;;;;;5073227;28;20202;-74
2022/05/26 13:52:20;;;;;;;5.50;1.92;;;22.10;99.90;;;;;;5073526;28;20217;-74
2022/05/26 13:54:58;;;;;;;6.15;2.13;;;22.10;99.90;;;;;;5091967;28;20255;-75
2022/05/26 13:57:37;;;;;;;5.80;2.38;;;21.90;99.90;;;;;;5073549;28;20568;-76
2022/05/26 14:00:14;;;;;;;4.13;1.75;;;21.70;99.90;;;;;;5074091;28;20202;-74